Time;durP1;ratioP1;P1;durP2;ratioP2;P2;SDS_P1;SDS_P2;PMS_P1;PMS_P2;Temp;Humidity;BMP_temperature;BMP_pressure;BME280_temperature;BME280_humidity;BME280_pressure;Samples;Min_cycle;Max_cycle;Signal;HPM_P1;HPM_P2
2022/06/11 00:09:54;;;;;;;;;;;;;;;19.60;88.79;101799.72;20951859;28;19927;-67
2022/06/11 00:20:15;;;;;;;;;;;;;;;19.59;88.49;101800.69;20948234;28;19943;-68
2022/06/11 00:30:37;;;;;;;;;;;;;;;19.53;89.54;101787.97;20951300;28;19921;-68
2022/06/11 00:40:58;;;;;;;;;;;;;;;19.48;89.45;101785.72;20976357;28;19926;-67
2022/06/11 00:51:22;;;;;;;;;;;;;;;19.55;88.26;101788.69;20934949;28;19928;-67
2022/06/11 01:01:43;;;;;;;;;;;;;;;19.48;89.10;101790.19;20937699;28;20063;-67
2022/06/11 01:12:14;;;;;;;;;;;;;;;19.32;90.09;101779.25;20923844;28;19924;-67
2022/06/11 01:22:36;;;;;;;;;;;;;;;19.19;96.61;101768.03;20936121;28;20155;-69
2022/06/11 01:33:03;;;;;;;;;;;;;;;18.97;90.48;101760.22;20973212;28;19964;-67
2022/06/11 01:43:29;;;;;;;;;;;;;;;18.84;90.36;101751.66;20962001;28;19920;-68
2022/06/11 01:53:58;;;;;;;;;;;;;;;18.68;90.42;101751.25;20949906;28;19927;-67
2022/06/11 02:04:43;;;;;;;15.43;8.57;;;;;;;18.61;91.72;101744.81;20952965;28;19921;-67
2022/06/11 02:15:13;;;;;;;11.43;8.38;;;;;;;18.45;90.62;101757.63;20948671;28;20052;-67
2022/06/11 02:25:39;;;;;;;15.75;8.75;;;;;;;18.32;90.84;101760.53;20946136;28;20048;-67
2022/06/11 02:36:20;;;;;;;11.32;8.20;;;;;;;18.30;90.92;101762.47;20950264;28;20052;-66
2022/06/11 02:46:45;;;;;;;11.93;8.40;;;;;;;18.14;91.15;101765.47;20960321;28;20052;-68
2022/06/11 02:57:10;;;;;;;12.90;8.77;;;;;;;18.10;90.03;101757.94;20950043;28;20055;-67
2022/06/11 03:07:32;;;;;;;13.60;9.20;;;;;;;18.00;90.48;101770.19;20950845;28;20408;-66
2022/06/11 03:17:55;;;;;;;14.13;9.55;;;;;;;17.89;90.93;101781.59;20919613;28;20051;-66
2022/06/11 03:28:21;;;;;;;13.45;8.93;;;;;;;17.88;90.55;101789.66;20923063;28;20131;-67
2022/06/11 03:38:44;;;;;;;12.80;9.48;;;;;;;17.88;91.07;101787.00;20944695;28;20516;-67
2022/06/11 03:49:06;;;;;;;16.25;8.98;;;;;;;17.96;90.69;101792.50;20940653;28;20048;-67
2022/06/11 03:59:28;;;;;;;19.20;9.20;;;;;;;18.00;90.11;101789.50;20929875;28;20036;-67
2022/06/11 04:09:49;;;;;;;14.77;8.88;;;;;;;18.01;89.76;101800.91;20942992;28;20056;-67
2022/06/11 04:20:13;;;;;;;15.73;9.20;;;;;;;18.06;89.02;101798.72;20948565;28;20068;-67
2022/06/11 04:30:35;;;;;;;18.90;9.90;;;;;;;18.17;88.98;101796.06;20941691;28;20400;-68
2022/06/11 04:40:56;;;;;;;19.80;10.52;;;;;;;18.19;89.45;101810.00;20937792;28;20060;-66
2022/06/11 04:51:19;;;;;;;18.13;11.55;;;;;;;18.29;88.80;101813.59;20944337;28;20521;-66
2022/06/11 05:01:41;;;;;;;16.58;11.35;;;;;;;18.33;88.55;101821.13;20954511;28;20056;-66
2022/06/11 05:12:03;;;;;;;18.25;11.65;;;;;;;18.35;88.03;101821.00;20960314;28;20051;-66
2022/06/11 05:22:25;;;;;;;14.65;10.98;;;;;;;18.37;88.21;101834.91;20959784;28;20500;-66
2022/06/11 05:32:47;;;;;;;16.05;11.32;;;;;;;18.45;87.53;101828.91;20952128;28;20059;-68
2022/06/11 05:43:09;;;;;;;12.43;8.82;;;;;;;18.61;88.37;101834.63;20943792;28;20752;-66
2022/06/11 05:53:36;;;;;;;12.55;6.35;;;;;;;18.75;84.03;101842.25;20951670;28;20068;-66
2022/06/11 06:03:58;;;;;;;14.43;4.80;;;;;;;18.84;83.25;101844.13;20949111;28;20044;-66
2022/06/11 06:14:20;;;;;;;10.80;4.22;;;;;;;18.91;81.27;101840.03;20942325;28;20067;-66
2022/06/11 06:24:47;;;;;;;10.38;3.60;;;;;;;18.83;80.37;101853.03;20954030;28;20649;-65
2022/06/11 06:35:10;;;;;;;12.93;3.88;;;;;;;18.93;79.49;101856.56;20956140;28;20049;-67
2022/06/11 06:45:32;;;;;;;9.27;3.67;;;;;;;18.93;79.34;101856.56;20932130;28;20055;-65
2022/06/11 06:55:54;;;;;;;7.15;2.83;;;;;;;18.82;78.79;101869.84;20945025;28;20425;-65
2022/06/11 07:06:16;;;;;;;7.15;3.00;;;;;;;18.89;77.40;101876.31;20947110;28;20071;-67
2022/06/11 07:16:46;;;;;;;12.05;3.03;;;;;;;19.03;75.82;101893.66;20970547;28;20041;-65
2022/06/11 07:27:14;;;;;;;8.38;3.00;;;;;;;19.16;75.69;101883.78;20939839;28;20052;-65
2022/06/11 07:37:36;;;;;;;7.30;2.90;;;;;;;19.47;74.39;101894.31;20932984;28;20048;-64
2022/06/11 07:47:57;;;;;;;13.52;3.13;;;;;;;19.62;74.33;101893.03;20934069;28;20032;-64
2022/06/11 07:58:23;;;;;;;11.07;2.85;;;;;;;19.87;73.99;101892.59;20940126;28;20037;-64
2022/06/11 08:08:46;;;;;;;11.27;3.28;;;;;;;20.06;73.80;101898.00;20962199;28;20148;-67
2022/06/11 08:19:08;;;;;;;9.88;2.88;;;;;;;20.23;72.13;101905.31;20944397;28;20540;-66
2022/06/11 08:29:29;;;;;;;14.15;3.47;;;;;;;20.37;72.29;101907.59;20946255;28;20084;-65
2022/06/11 08:39:51;;;;;;;9.13;2.90;;;;;;;20.67;72.90;101914.47;20939111;28;20139;-63
2022/06/11 08:50:19;;;;;;;12.80;2.90;;;;;;;20.92;71.44;101916.66;20944795;28;20049;-66
2022/06/11 09:00:46;;;;;;;;;;;;;;;21.11;71.46;101932.56;20932238;28;20120;-69
2022/06/11 09:11:27;;;;;;;;;;;;;;;21.39;70.23;101926.44;20938403;28;19924;-68
2022/06/11 09:21:57;;;;;;;;;;;;;;;21.38;71.49;101930.06;20922408;28;20265;-69
2022/06/11 09:32:24;;;;;;;;;;;;;;;21.45;71.42;101941.78;20927425;28;19931;-66
2022/06/11 09:42:49;;;;;;;15.00;3.17;;;;;;;21.50;67.59;101944.84;20921300;28;19921;-68
2022/06/11 09:53:50;;;;;;;12.27;2.38;;;;;;;21.59;67.25;101944.88;20938293;28;20452;-68
2022/06/11 10:04:16;;;;;;;13.88;2.60;;;;;;;22.02;67.66;101942.53;20928997;28;20063;-65
2022/06/11 10:14:44;;;;;;;13.85;2.70;;;;;;;21.78;65.52;101951.97;20924267;28;20036;-67
2022/06/11 10:25:19;;;;;;;12.95;2.42;;;;;;;21.95;61.49;101952.06;20914011;28;20044;-66
2022/06/11 10:35:47;;;;;;;11.25;2.53;;;;;;;22.31;64.36;101955.69;20943047;28;20071;-62
2022/06/11 10:46:10;;;;;;;;;;;;;;;22.72;65.60;101964.88;20946045;28;20055;-65
2022/06/11 10:56:38;;;;;;;;;;;;;;;21.17;78.44;101966.50;20923471;28;19925;-64
2022/06/11 11:07:29;;;;;;;;;;;;;;;20.39;75.68;101955.00;20939146;28;19925;-65
2022/06/11 11:18:00;;;;;;;;;;;;;;;21.09;71.69;101965.53;20928293;28;19927;-67
2022/06/11 11:28:27;;;;;;;;;;;;;;;22.33;68.29;101957.28;20936344;28;19959;-70
2022/06/11 11:39:00;;;;;;;;;;;;;;;22.93;67.64;101952.16;20936061;28;19929;-70
2022/06/11 11:49:24;;;;;;;;;;;;;;;23.62;64.25;101971.78;20943033;28;19942;-71
2022/06/11 11:59:51;;;;;;;;;;;;;;;23.50;63.43;101973.03;20935988;28;19920;-70
2022/06/11 12:10:30;;;;;;;;;;;;;;;23.56;67.44;101961.78;20939692;28;19926;-69
2022/06/11 12:20:54;;;;;;;;;;;;;;;23.46;66.38;101972.50;20940131;28;20304;-73
2022/06/11 12:31:17;;;;;;;;;;;;;;;23.13;65.46;101980.34;20932911;28;20517;-68
2022/06/11 12:41:44;;;;;;;;;;;;;;;23.07;63.72;101986.25;20936557;28;19920;-69
2022/06/11 12:52:24;;;;;;;;;;;;;;;22.92;64.60;101984.25;20936119;28;19928;-69
2022/06/11 13:03:07;;;;;;;;;;;;;;;22.94;61.76;101987.56;20958286;28;19927;-69
2022/06/11 13:13:56;;;;;;;;;;;;;;;23.20;60.88;101986.72;20931134;28;20542;-67
2022/06/11 13:24:18;;;;;;;;;;;;;;;23.25;64.44;101981.78;20971051;28;19924;-68
2022/06/11 13:35:05;;;;;;;;;;;;;;;23.12;64.17;101983.13;20975673;28;19927;-70
2022/06/11 13:45:34;;;;;;;;;;;;;;;23.03;64.39;101990.16;20941946;28;19924;-67
2022/06/11 13:55:59;;;;;;;;;;;;;;;23.28;60.50;101984.16;20946125;28;19954;-69
2022/06/11 14:06:22;;;;;;;;;;;;;;;23.50;54.39;101986.34;20937419;28;19943;-67
2022/06/11 14:16:45;;;;;;;;;;;;;;;23.55;61.29;101982.22;20939350;28;19930;-69
2022/06/11 14:27:26;;;;;;;;;;;;;;;23.76;58.50;101988.09;20985435;28;19931;-67
2022/06/11 14:37:49;;;;;;;;;;;;;;;23.77;60.70;101980.91;20964578;28;20380;-69
2022/06/11 14:48:12;;;;;;;;;;;;;;;23.82;53.90;101978.63;20945004;28;19924;-68
2022/06/11 14:58:48;;;;;;;;;;;;;;;23.90;56.72;101992.00;20942927;28;20003;-66
2022/06/11 15:09:21;;;;;;;;;;;;;;;23.88;59.35;101991.31;20957314;28;20294;-65
2022/06/11 15:19:46;;;;;;;;;;;;;;;23.73;59.90;101987.50;20943712;28;20281;-67
2022/06/11 15:30:09;;;;;;;;;;;;;;;23.80;57.75;101975.28;20951922;28;19924;-67
2022/06/11 15:40:35;;;;;;;;;;;;;;;23.88;55.89;101970.84;20946534;28;20335;-64
2022/06/11 15:50:59;;;;;;;;;;;;;;;24.10;57.16;101966.81;20913953;28;19927;-66
2022/06/11 16:01:21;;;;;;;;;;;;;;;24.28;54.07;101964.94;20934292;28;19925;-66
2022/06/11 16:11:51;;;;;;;;;;;;;;;24.55;57.96;101966.41;20940860;28;19967;-64
2022/06/11 16:22:26;;;;;;;9.05;1.92;;;;;;;25.04;45.61;101964.72;20927670;28;19959;-66
2022/06/11 16:32:50;;;;;;;9.00;1.65;;;;;;;25.48;49.58;101961.59;20911019;28;20384;-65
2022/06/11 16:43:18;;;;;;;11.18;2.10;;;;;;;25.54;49.82;101952.94;20921011;28;20032;-66
2022/06/11 17:04:28;;;;;;;11.45;2.22;;;;;;;25.56;55.74;101962.44;20922029;28;20053;-63
2022/06/11 17:15:02;;;;;;;10.73;2.38;;;;;;;25.96;46.57;101953.56;20946065;28;20769;-63
2022/06/11 17:25:26;;;;;;;10.02;1.73;;;;;;;25.88;58.14;101956.28;20929503;28;20041;-63
2022/06/11 17:35:49;;;;;;;10.57;2.20;;;;;;;25.32;58.25;101969.66;20927342;28;20044;-63
2022/06/11 17:46:19;;;;;;;9.05;2.33;;;;;;;24.77;52.08;101957.81;20885563;28;20037;-62
2022/06/11 17:56:41;;;;;;;7.55;1.73;;;;;;;24.32;62.04;101937.78;20884890;28;20132;-62
2022/06/11 18:07:07;;;;;;;13.15;2.20;;;;;;;24.03;58.08;101952.44;20905856;28;20060;-62
2022/06/11 18:17:29;;;;;;;8.50;1.70;;;;;;;23.71;62.25;101946.91;20913861;28;20036;-63
2022/06/11 18:27:54;;;;;;;10.88;2.20;;;;;;;23.47;62.61;101968.00;20933588;28;20048;-63
2022/06/11 18:38:16;;;;;;;11.23;2.10;;;;;;;23.33;62.79;101949.91;20954478;28;20083;-62
2022/06/11 18:48:38;;;;;;;10.93;2.15;;;;;;;23.11;62.73;101945.06;20945142;28;20151;-62
2022/06/11 18:58:59;;;;;;;10.57;2.47;;;;;;;22.93;64.07;101957.47;20946069;28;20689;-63
2022/06/11 19:09:21;;;;;;;10.52;2.50;;;;;;;22.75;63.16;101964.59;20959353;28;20136;-63
2022/06/11 19:19:44;;;;;;;11.57;2.50;;;;;;;22.07;67.16;101981.94;20946219;28;20036;-63
2022/06/11 19:30:10;;;;;;;11.70;2.17;;;;;;;21.52;66.74;101980.06;20947257;28;20052;-63
2022/06/11 19:40:38;;;;;;;12.40;2.63;;;;;;;21.28;68.77;101992.91;20920300;28;20045;-64
2022/06/11 19:51:02;;;;;;;15.70;3.33;;;;;;;21.11;69.48;101996.22;20965405;28;20131;-68
2022/06/11 20:01:27;;;;;;;8.85;2.30;;;;;;;20.83;69.86;102007.63;20924219;28;20045;-65
2022/06/11 20:11:51;;;;;;;13.93;3.10;;;;;;;20.60;70.29;102011.44;20928431;28;20044;-63
2022/06/11 20:22:15;;;;;;;17.73;2.90;;;;;;;20.31;70.47;102019.38;20928872;28;20052;-63
2022/06/11 20:32:36;;;;;;;16.10;2.72;;;;;;;20.06;70.60;102036.53;20925579;28;20040;-64
2022/06/11 20:42:59;;;;;;;14.35;2.40;;;;;;;19.90;70.50;102030.81;20928944;28;20172;-64
2022/06/11 20:53:23;;;;;;;19.75;2.40;;;;;;;19.80;70.17;102029.06;20937504;28;20045;-64
2022/06/11 21:03:44;;;;;;;15.20;2.72;;;;;;;19.71;70.58;102046.56;20925815;28;20677;-63
2022/06/11 21:14:07;;;;;;;13.40;3.00;;;;;;;19.47;70.25;102031.88;20927671;28;20095;-64
2022/06/11 21:24:33;;;;;;;14.05;2.63;;;;;;;19.34;70.77;102025.91;20894324;28;20048;-64
2022/06/11 21:34:55;;;;;;;16.33;2.70;;;;;;;19.20;71.16;102026.19;20912594;28;20040;-63
2022/06/11 21:45:21;;;;;;;14.80;2.80;;;;;;;19.13;71.04;102026.81;20924306;28;20044;-63
2022/06/11 21:55:42;;;;;;;13.18;2.53;;;;;;;18.95;71.20;102028.25;20939178;28;20055;-65
2022/06/11 22:06:05;;;;;;;16.95;2.75;;;;;;;18.78;71.62;102021.66;20933965;28;20060;-64
2022/06/11 22:16:29;;;;;;;13.77;2.78;;;;;;;18.68;72.36;102020.72;20927398;28;20049;-64
2022/06/11 22:26:51;;;;;;;17.08;3.25;;;;;;;18.52;73.23;102030.81;20927642;28;20045;-64
2022/06/11 22:37:14;;;;;;;14.50;3.17;;;;;;;18.44;73.61;102022.66;20934275;28;20053;-64
2022/06/11 22:47:36;;;;;;;18.13;3.72;;;;;;;18.34;74.04;102020.03;20931132;28;20040;-67
2022/06/11 22:58:01;;;;;;;12.23;2.90;;;;;;;18.26;74.49;102012.69;20917638;28;20776;-67
2022/06/11 23:08:23;;;;;;;21.85;3.53;;;;;;;18.10;74.84;102000.75;20939482;28;20052;-67
2022/06/11 23:18:45;;;;;;;20.88;3.75;;;;;;;18.00;74.13;102010.34;20935806;28;20052;-66
2022/06/11 23:29:06;;;;;;;15.70;3.13;;;;;;;17.96;73.96;102022.06;20944362;28;20051;-67
2022/06/11 23:39:28;;;;;;;19.02;3.72;;;;;;;17.86;74.27;102018.47;20941722;28;20048;-65
2022/06/11 23:49:50;;;;;;;16.17;3.72;;;;;;;17.67;75.32;102018.16;20941004;28;20040;-67
